createdAt,value
2019-01-29T00:01:41.116Z,93.15
2019-01-29T00:06:37.106Z,93.04
2019-01-29T00:11:32.998Z,93.15
2019-01-29T00:16:28.885Z,93.29
2019-01-29T00:21:24.781Z,93.41
2019-01-29T00:26:20.735Z,93.36
2019-01-29T00:31:16.624Z,93.37
2019-01-29T00:36:12.512Z,93.33
2019-01-29T00:41:08.401Z,93.25
2019-01-29T00:46:04.463Z,93.44
2019-01-29T00:51:00.534Z,93.49
2019-01-29T00:55:56.445Z,92.98
2019-01-29T01:00:52.345Z,93.35
2019-01-29T01:05:48.240Z,93.21
2019-01-29T01:10:44.230Z,93.48
2019-01-29T01:15:40.127Z,93.70
2019-01-29T01:20:36.018Z,93.63
2019-01-29T01:25:31.954Z,93.80
2019-01-29T01:30:27.868Z,93.84
2019-01-29T01:35:23.757Z,93.76
2019-01-29T01:40:21.044Z,94.00
2019-01-29T01:45:17.030Z,94.02
2019-01-29T01:50:13.522Z,93.94
2019-01-29T01:55:11.917Z,94.03
2019-01-29T02:00:18.735Z,93.80
2019-01-29T02:05:14.806Z,93.50
2019-01-29T02:10:22.888Z,93.34
2019-01-29T02:15:18.966Z,93.35
2019-01-29T02:20:15.757Z,93.47
2019-01-29T02:25:11.858Z,93.45
2019-01-29T02:30:11.295Z,93.61
2019-01-29T02:35:07.584Z,93.75
2019-01-29T02:40:07.180Z,93.78
2019-01-29T02:45:06.896Z,93.87
2019-01-29T02:50:05.298Z,93.84
2019-01-29T02:55:01.309Z,94.03
2019-01-29T02:59:57.348Z,93.87
2019-01-29T03:04:53.655Z,94.02
2019-01-29T03:09:49.765Z,93.91
2019-01-29T03:14:45.658Z,94.12
2019-01-29T03:19:41.548Z,94.30
2019-01-29T03:24:38.175Z,94.04
2019-01-29T03:29:34.110Z,94.09
2019-01-29T03:34:29.975Z,94.16
2019-01-29T03:39:25.923Z,94.24
2019-01-29T03:44:21.814Z,94.55
2019-01-29T03:49:17.705Z,94.42
2019-01-29T03:54:14.319Z,94.41
2019-01-29T03:59:10.283Z,94.03
2019-01-29T04:04:06.180Z,93.90
2019-01-29T04:09:05.578Z,93.87
2019-01-29T04:14:01.478Z,93.63
2019-01-29T04:18:57.387Z,93.63
2019-01-29T04:23:55.002Z,94.16
2019-01-29T04:28:51.010Z,94.20
2019-01-29T04:33:46.908Z,93.87
2019-01-29T04:38:42.793Z,93.56
2019-01-29T04:43:38.680Z,93.64
2019-01-29T04:48:34.575Z,93.91
2019-01-29T04:53:31.331Z,93.95
2019-01-29T04:58:27.217Z,93.77
2019-01-29T05:03:25.586Z,93.60
2019-01-29T05:08:21.437Z,93.91
2019-01-29T05:13:17.328Z,93.51
2019-01-29T05:18:13.218Z,94.20
2019-01-29T05:23:09.165Z,94.24
2019-01-29T05:28:05.156Z,93.91
2019-01-29T05:33:01.245Z,93.65
2019-01-29T05:37:57.395Z,93.72
2019-01-29T05:42:53.491Z,93.56
2019-01-29T05:47:49.484Z,93.52
2019-01-29T05:52:45.374Z,93.50
2019-01-29T05:57:41.388Z,93.09
2019-01-29T06:02:37.459Z,93.20
2019-01-29T06:07:33.346Z,92.93
2019-01-29T06:12:29.361Z,93.34
2019-01-29T06:17:27.561Z,93.49
2019-01-29T06:22:23.235Z,93.53
2019-01-29T06:27:19.125Z,92.58
2019-01-29T06:32:15.017Z,92.49
2019-01-29T06:37:10.911Z,92.43
2019-01-29T06:42:06.906Z,92.14
2019-01-29T06:47:03.100Z,92.00
2019-01-29T06:51:58.992Z,91.90
2019-01-29T06:56:54.982Z,91.06
2019-01-29T07:01:50.878Z,91.33
2019-01-29T07:06:46.776Z,91.68
2019-01-29T07:11:42.706Z,91.76
2019-01-29T07:16:40.499Z,91.52
2019-01-29T07:21:36.496Z,90.85
2019-01-29T07:26:32.391Z,91.41
2019-01-29T07:31:28.282Z,91.78
2019-01-29T07:36:24.174Z,91.75
2019-01-29T07:41:20.066Z,92.34
2019-01-29T07:46:15.961Z,92.41
2019-01-29T07:51:11.953Z,92.94
2019-01-29T07:56:07.847Z,92.50
2019-01-29T08:01:03.842Z,92.50
2019-01-29T08:05:59.729Z,92.75
2019-01-29T08:10:55.650Z,92.84
2019-01-29T08:15:51.737Z,92.66
2019-01-29T08:20:47.629Z,92.41
2019-01-29T08:25:47.945Z,92.57
2019-01-29T08:30:41.421Z,92.71
2019-01-29T08:35:37.413Z,92.42
2019-01-29T08:40:33.313Z,92.46
2019-01-29T08:45:30.037Z,92.47
2019-01-29T08:50:26.137Z,92.75
2019-01-29T08:55:22.617Z,92.16
2019-01-29T09:00:19.809Z,91.98
2019-01-29T09:05:15.799Z,92.49
2019-01-29T09:10:15.534Z,92.15
2019-01-29T09:15:13.839Z,92.45
2019-01-29T09:20:12.250Z,92.54
2019-01-29T09:25:19.174Z,92.13
2019-01-29T09:30:11.328Z,92.09
2019-01-29T09:35:08.492Z,92.07
2019-01-29T09:40:12.105Z,91.48
2019-01-29T09:45:11.441Z,91.25
2019-01-29T09:50:10.675Z,90.75
2019-01-29T09:55:10.169Z,90.49
2019-01-29T10:00:18.436Z,90.46
2019-01-29T10:05:14.533Z,90.22
2019-01-29T10:10:11.728Z,89.79
2019-01-29T10:15:20.108Z,89.60
2019-01-29T10:20:16.206Z,89.40
2019-01-29T10:25:13.273Z,89.39
2019-01-29T10:30:14.768Z,89.11
2019-01-29T10:35:13.662Z,89.45
2019-01-29T10:40:12.653Z,89.33
2019-01-29T10:45:11.654Z,88.92
2019-01-29T10:50:11.359Z,88.91
2019-01-29T10:55:07.971Z,88.34
2019-01-29T11:00:12.122Z,88.39
2019-01-29T11:05:11.550Z,88.68
2019-01-29T11:10:10.297Z,88.29
2019-01-29T11:15:09.998Z,88.65
2019-01-29T11:20:12.263Z,88.37
2019-01-29T11:25:17.949Z,87.80
2019-01-29T11:30:40.053Z,86.99
2019-01-29T11:35:36.057Z,86.51
2019-01-29T11:40:32.160Z,87.07
2019-01-29T11:45:54.082Z,86.76
2019-01-29T11:50:49.979Z,86.21
2019-01-29T11:55:45.865Z,86.32
2019-01-29T12:00:52.927Z,86.10
2019-01-29T12:05:48.817Z,85.34
2019-01-29T12:10:44.888Z,85.47
2019-01-29T12:15:40.909Z,84.49
2019-01-29T12:20:36.908Z,84.47
2019-01-29T12:25:33.097Z,83.71
2019-01-29T12:30:29.477Z,83.01
2019-01-29T12:35:25.466Z,82.22
2019-01-29T12:40:21.356Z,81.95
2019-01-29T12:45:17.654Z,81.05
2019-01-29T12:50:18.551Z,80.89
2019-01-29T12:55:14.608Z,81.67
2019-01-29T13:00:14.314Z,80.50
2019-01-29T13:05:12.014Z,80.59
2019-01-29T13:10:11.742Z,80.11
2019-01-29T13:15:14.457Z,79.47
2019-01-29T13:20:10.375Z,78.94
2019-01-29T13:25:11.533Z,79.71
2019-01-29T13:30:21.240Z,77.97
2019-01-29T13:35:18.666Z,77.78
2019-01-29T13:40:14.994Z,78.07
2019-01-29T13:45:14.934Z,77.13
2019-01-29T13:50:20.769Z,77.42
2019-01-29T13:55:16.766Z,77.34
2019-01-29T14:00:16.166Z,75.85
2019-01-29T14:05:12.383Z,75.60
2019-01-29T14:10:11.565Z,76.11
2019-01-29T14:15:12.366Z,76.40
2019-01-29T14:20:11.975Z,76.29
2019-01-29T14:25:08.767Z,76.06
2019-01-29T14:30:19.368Z,75.51
2019-01-29T14:35:16.124Z,75.92
2019-01-29T14:40:15.626Z,75.99
2019-01-29T14:45:14.923Z,75.96
2019-01-29T14:50:13.286Z,75.36
2019-01-29T14:55:10.561Z,76.03
2019-01-29T15:00:19.033Z,76.43
2019-01-29T15:05:15.736Z,76.35
2019-01-29T15:10:21.695Z,75.41
2019-01-29T15:15:20.394Z,76.18
2019-01-29T15:20:16.405Z,76.04
2019-01-29T15:25:14.455Z,76.69
2019-01-29T15:30:29.793Z,76.72
2019-01-29T15:35:25.798Z,77.02
2019-01-29T15:40:22.181Z,78.01
2019-01-29T15:45:24.963Z,77.73
2019-01-29T15:50:28.431Z,79.10
2019-01-29T15:55:37.047Z,80.29
2019-01-29T16:00:35.738Z,80.71
2019-01-29T16:05:43.255Z,82.07
2019-01-29T16:10:42.616Z,82.73
2019-01-29T16:15:40.853Z,82.88
2019-01-29T16:20:37.689Z,83.57
2019-01-29T16:25:36.343Z,83.74
2019-01-29T16:30:37.084Z,83.79
2019-01-29T16:35:42.044Z,83.52
2019-01-29T16:40:42.155Z,83.65
2019-01-29T16:45:38.956Z,83.88
2019-01-29T16:50:46.173Z,83.95
2019-01-29T16:55:43.828Z,83.60
2019-01-29T17:00:42.825Z,83.63
2019-01-29T17:05:44.997Z,83.32
2019-01-29T17:10:45.531Z,83.28
2019-01-29T17:15:44.624Z,83.36
2019-01-29T17:20:42.820Z,83.42
2019-01-29T17:25:41.818Z,83.81
2019-01-29T17:30:47.083Z,83.95
2019-01-29T17:35:46.708Z,83.19
2019-01-29T17:40:44.734Z,83.69
2019-01-29T17:45:45.698Z,84.03
2019-01-29T17:50:43.917Z,84.28
2019-01-29T17:55:42.302Z,84.07
2019-01-29T18:00:42.843Z,84.56
2019-01-29T18:05:40.754Z,84.27
2019-01-29T18:10:38.943Z,84.44
2019-01-29T18:15:41.694Z,84.91
2019-01-29T18:20:47.210Z,84.68
2019-01-29T18:25:51.744Z,84.68
2019-01-29T18:30:48.774Z,84.36
2019-01-29T18:35:49.431Z,84.65
2019-01-29T18:40:52.026Z,85.18
2019-01-29T18:45:50.153Z,85.20
2019-01-29T18:50:48.849Z,85.51
2019-01-29T18:55:50.755Z,85.69
2019-01-29T19:00:54.752Z,85.99
2019-01-29T19:05:48.399Z,85.91
2019-01-29T19:10:45.944Z,86.13
2019-01-29T19:15:42.804Z,86.14
2019-01-29T19:20:40.723Z,86.57
2019-01-29T19:25:38.871Z,86.79
2019-01-29T19:30:37.387Z,87.34
2019-01-29T19:35:35.393Z,87.60
2019-01-29T19:40:31.950Z,87.55
2019-01-29T19:45:31.886Z,88.13
2019-01-29T19:50:31.240Z,88.08
2019-01-29T19:55:28.423Z,87.77
2019-01-29T20:00:31.627Z,87.68
2019-01-29T20:05:29.236Z,87.82
2019-01-29T20:10:26.155Z,88.37
2019-01-29T20:15:24.592Z,88.56
2019-01-29T20:20:24.264Z,88.47
2019-01-29T20:25:21.067Z,88.02
2019-01-29T20:30:23.772Z,87.48
2019-01-29T20:35:24.061Z,87.63
2019-01-29T20:40:22.622Z,88.04
2019-01-29T20:45:20.961Z,88.53
2019-01-29T20:50:22.757Z,88.25
2019-01-29T20:55:19.347Z,87.68
2019-01-29T21:00:34.897Z,87.78
2019-01-29T21:05:32.597Z,87.62
2019-01-29T21:10:29.386Z,87.77
2019-01-29T21:15:37.688Z,87.34
2019-01-29T21:20:33.270Z,86.92
2019-01-29T21:25:30.923Z,87.31
2019-01-29T21:30:34.027Z,86.97
2019-01-29T21:35:31.855Z,86.68
2019-01-29T21:40:28.453Z,87.07
2019-01-29T21:45:29.063Z,86.72
2019-01-29T21:50:29.085Z,86.16
2019-01-29T21:55:27.633Z,86.29
2019-01-29T22:00:27.795Z,85.99
2019-01-29T22:05:23.967Z,86.27
2019-01-29T22:10:20.620Z,86.52
2019-01-29T22:15:21.143Z,86.02
2019-01-29T22:20:25.267Z,86.28
2019-01-29T22:25:24.450Z,85.96
2019-01-29T22:30:47.541Z,86.38
2019-01-29T22:35:44.577Z,86.76
2019-01-29T22:40:41.407Z,86.64
2019-01-29T22:45:38.161Z,86.52
2019-01-29T22:50:37.712Z,86.46
2019-01-29T22:55:35.074Z,86.45
2019-01-29T23:06:22.198Z,86.62
2019-01-29T23:11:18.982Z,86.62
2019-01-29T23:16:15.221Z,86.85
2019-01-29T23:21:11.093Z,86.69
2019-01-29T23:26:06.982Z,86.76
2019-01-29T23:31:02.969Z,86.58
2019-01-29T23:35:58.902Z,86.64
2019-01-29T23:40:54.993Z,86.58
2019-01-29T23:45:50.881Z,86.64
2019-01-29T23:50:46.874Z,86.51
2019-01-29T23:55:42.794Z,86.48
